LLHA/HFA METAR and TAF weather

Enter ICAO airport designator
Station Type Date Time Source
LLHA METAR 2019/06/18 04:50 UTC NOAA

LLHA 180450Z 15004KT 9999 FEW020 26/20 Q1011


Station Type Date Time Source
LLHA Decoded METAR 2019/06/18 04:50 UTC NOAA

Sde-Haifa Haifa, Israel (LLHA) 32-48N 035-02E 8M
Jun 18, 2019 - 12:50 AM EDT / 2019.06.18 0450 UTC
Wind: from the SSE (150 degrees) at 5 MPH (4 KT):0
Visibility: greater than 7 mile(s):0
Sky conditions: mostly clear
Temperature: 78 F (26 C)
Dew Point: 68 F (20 C)
Relative Humidity: 69%
Pressure (altimeter): 29.85 in. Hg (1011 hPa)
ob: LLHA 180450Z 15004KT 9999 FEW020 26/20 Q1011
cycle: 5

Station Type Date Time Source
LLHA TAF 2019/06/18 06:00 UTC NOAA

TAF LLHA 180505Z 1806/1906 25010KT 9999 SCT022
BECMG 1808/1810 FEW030
BECMG 1815/1818 13004KT CAVOK PROB40 1900/1904 9999 SCT017 TX29/1810Z TN21/1903Z

Example: see airport list